Time;durP1;ratioP1;P1;durP2;ratioP2;P2;SDS_P1;SDS_P2;PMS_P1;PMS_P2;Temp;Humidity;BMP_temperature;BMP_pressure;BME280_temperature;BME280_humidity;BME280_pressure;Samples;Min_cycle;Max_cycle;Signal;HPM_P1;HPM_P2
2022/08/26 22:06:59;;;;;;;;;15.25;11.75;;;27.83;100415.23;;;;116235;1204;23421;-61
2022/08/26 22:09:30;;;;;;;;;12.50;10.50;;;27.88;100411.92;;;;116916;1195;25452;-59
2022/08/26 22:11:59;;;;;;;;;11.67;11.00;;;27.95;100412.40;;;;117021;1194;25092;-59
2022/08/26 22:14:28;;;;;;;;;11.67;8.67;;;27.93;100399.11;;;;117029;1194;25438;-59
2022/08/26 22:16:58;;;;;;;;;7.33;7.33;;;27.98;100402.35;;;;116939;1194;24861;-60
2022/08/26 22:19:30;;;;;;;;;6.67;6.67;;;28.07;100411.17;;;;116850;1193;25300;-59
2022/08/26 22:22:02;;;;;;;;;11.75;8.75;;;28.18;100411.61;;;;116964;1194;25205;-59
2022/08/26 22:24:30;;;;;;;;;12.75;8.75;;;28.25;100408.27;;;;116845;1195;25016;-60
2022/08/26 22:26:59;;;;;;;;;14.67;10.00;;;28.30;100408.81;;;;116861;1195;24767;-58
2022/08/26 22:29:27;;;;;;;;;14.75;10.25;;;28.37;100407.69;;;;116864;1195;26195;-60
2022/08/26 22:31:56;;;;;;;;;18.33;13.00;;;28.43;100407.77;;;;116918;1195;25372;-61
2022/08/26 22:34:25;;;;;;;;;10.00;10.00;;;28.49;100402.75;;;;116876;1194;25692;-60
2022/08/26 22:36:53;;;;;;;;;9.50;9.50;;;28.54;100399.07;;;;116781;1194;25240;-60
2022/08/26 22:39:24;;;;;;;;;13.00;10.25;;;28.60;100400.05;;;;117090;1193;24832;-60
2022/08/26 22:41:54;;;;;;;;;14.50;5.00;;;28.64;100399.98;;;;117059;1194;26040;-60
2022/08/26 22:44:22;;;;;;;;;17.00;10.50;;;28.69;100399.41;;;;117024;1192;25320;-61
2022/08/26 22:46:55;;;;;;;;;13.75;10.50;;;28.74;100398.69;;;;116777;1195;25666;-60
2022/08/26 22:49:24;;;;;;;;;11.00;8.67;;;28.82;100398.89;;;;117487;1195;24806;-60
2022/08/26 22:51:53;;;;;;;;;14.00;9.00;;;29.00;100400.69;;;;116978;1194;25330;-60
2022/08/26 22:54:21;;;;;;;;;10.25;8.25;;;29.03;100402.13;;;;116936;1193;25188;-61
2022/08/26 22:56:50;;;;;;;;;11.67;8.00;;;29.05;100402.64;;;;117769;1195;25369;-59
2022/08/26 22:59:18;;;;;;;;;12.00;9.50;;;29.22;100403.24;;;;116892;1193;24751;-60
2022/08/26 23:01:48;;;;;;;;;13.50;9.75;;;29.20;100407.86;;;;116852;1195;25312;-60
2022/08/26 23:04:16;;;;;;;;;11.75;9.25;;;29.17;100410.08;;;;116897;1194;25585;-61
2022/08/26 23:06:45;;;;;;;;;11.00;9.50;;;29.16;100411.10;;;;116837;1194;25548;-61
2022/08/26 23:09:16;;;;;;;;;11.00;10.25;;;29.15;100408.21;;;;116934;1194;25162;-59
2022/08/26 23:11:47;;;;;;;;;12.75;10.00;;;29.17;100399.56;;;;117052;1193;25119;-60
2022/08/26 23:14:17;;;;;;;;;10.25;8.25;;;29.19;100400.81;;;;116914;1193;25822;-58
2022/08/26 23:16:46;;;;;;;;;16.25;11.50;;;29.20;100398.88;;;;117060;1194;25163;-58
2022/08/26 23:19:17;;;;;;;;;8.25;6.00;;;29.21;100397.08;;;;117074;1193;25945;-58
2022/08/26 23:21:46;;;;;;;;;12.00;11.00;;;29.23;100394.41;;;;117071;1194;24833;-58
2022/08/26 23:24:16;;;;;;;;;14.50;8.25;;;29.25;100396.65;;;;117133;1192;26295;-58
2022/08/26 23:26:45;;;;;;;;;12.00;7.50;;;29.26;100396.89;;;;117110;1193;24777;-59
2022/08/26 23:29:14;;;;;;;;;9.50;9.50;;;29.27;100402.46;;;;117153;1193;24833;-59
2022/08/26 23:31:42;;;;;;;;;10.00;9.33;;;29.30;100403.29;;;;117120;1192;25056;-59
2022/08/26 23:37:00;;;;;;;;;15.25;9.50;;;29.37;100402.80;;;;119098;1193;24880;-59
2022/08/26 23:39:31;;;;;;;;;11.75;10.00;;;29.74;100407.20;;;;117071;1193;25540;-59
2022/08/26 23:42:00;;;;;;;;;8.50;7.00;;;29.79;100406.67;;;;117141;1192;25129;-59
2022/08/26 23:44:30;;;;;;;;;10.00;9.00;;;29.71;100405.16;;;;117067;1194;26134;-59
2022/08/26 23:46:58;;;;;;;;;11.50;9.00;;;29.63;100403.88;;;;117062;1194;25101;-59
2022/08/26 23:49:27;;;;;;;;;11.00;8.33;;;29.59;100404.34;;;;117021;1193;25062;-58
2022/08/26 23:54:46;;;;;;;;;6.75;6.75;;;29.53;100400.23;;;;117084;1193;25501;-59
2022/08/26 23:57:16;;;;;;;;;12.00;9.00;;;29.50;100398.78;;;;117083;1193;25541;-60
2022/08/26 23:59:45;;;;;;;;;11.75;9.00;;;29.49;100397.33;;;;117123;1193;25675;-59
